createdAt,value
2023-03-04T00:02:25.278Z,100102.59
2023-03-04T00:04:54.954Z,100096.20
2023-03-04T00:07:23.402Z,100094.75
2023-03-04T00:09:53.684Z,100090.95
2023-03-04T00:12:23.232Z,100088.77
2023-03-04T00:14:51.763Z,100088.04
2023-03-04T00:17:25.595Z,100090.38
2023-03-04T00:19:55.575Z,100086.39
2023-03-04T00:22:24.336Z,100087.77
2023-03-04T00:24:53.469Z,100086.15
2023-03-04T00:27:22.254Z,100084.41
2023-03-04T00:29:51.167Z,100080.95
2023-03-04T00:32:19.730Z,100079.94
2023-03-04T00:34:48.805Z,100077.45
2023-03-04T00:37:17.171Z,100078.58
2023-03-04T00:39:45.690Z,100075.95
2023-03-04T00:42:17.020Z,100074.96
2023-03-04T00:44:46.703Z,100073.48
2023-03-04T00:47:15.405Z,100071.36
2023-03-04T00:49:44.268Z,100070.45
2023-03-04T00:52:13.439Z,100066.79
2023-03-04T00:54:43.115Z,100062.66
2023-03-04T00:57:11.768Z,100061.96
2023-03-04T00:59:41.060Z,100057.95
2023-03-04T01:02:12.086Z,100058.13
2023-03-04T01:04:43.512Z,100061.64
2023-03-04T01:07:13.433Z,100063.66
2023-03-04T01:09:45.294Z,100065.28
2023-03-04T01:12:14.260Z,100068.30
2023-03-04T01:14:42.704Z,100068.58
2023-03-04T01:17:17.516Z,100070.59
2023-03-04T01:19:45.822Z,100074.97
2023-03-04T01:22:15.309Z,100076.55
2023-03-04T01:24:45.169Z,100075.95
2023-03-04T01:27:13.469Z,100073.81
2023-03-04T01:29:45.358Z,100073.69
2023-03-04T01:32:13.472Z,100068.82
2023-03-04T01:34:43.410Z,100070.38
2023-03-04T01:37:13.645Z,100064.63
2023-03-04T01:39:41.735Z,100065.90
2023-03-04T01:42:17.356Z,100059.67
2023-03-04T01:44:45.545Z,100062.77
2023-03-04T01:47:19.365Z,100056.49
2023-03-04T01:49:53.731Z,100053.38
2023-03-04T01:52:22.521Z,100050.46
2023-03-04T01:54:52.459Z,100043.31
2023-03-04T01:57:25.601Z,100036.93
2023-03-04T02:00:22.824Z,100037.64
2023-03-04T02:02:54.395Z,100031.86
2023-03-04T02:05:23.030Z,100025.01
2023-03-04T02:07:53.222Z,100019.38
2023-03-04T02:10:24.466Z,100012.80
2023-03-04T02:12:54.629Z,100005.52
2023-03-04T02:15:23.571Z,100000.86
2023-03-04T02:17:58.170Z,100001.00
2023-03-04T02:20:48.931Z,99990.85
2023-03-04T02:23:26.918Z,99986.11
2023-03-04T02:26:28.541Z,99978.32
2023-03-04T02:28:58.322Z,99977.33
2023-03-04T02:31:33.057Z,99964.33
2023-03-04T02:34:06.759Z,99960.95
2023-03-04T02:36:35.822Z,99953.48
2023-03-04T02:39:11.150Z,99940.89
2023-03-04T02:41:40.372Z,99936.67
2023-03-04T02:44:36.323Z,99931.47
2023-03-04T02:47:08.046Z,99928.72
2023-03-04T02:49:38.000Z,99915.95
2023-03-04T02:52:10.246Z,99912.40
2023-03-04T02:54:38.800Z,99910.05
2023-03-04T02:57:09.306Z,99899.17
2023-03-04T02:59:39.216Z,99889.48
2023-03-04T03:02:09.711Z,99884.33
2023-03-04T03:04:41.660Z,99878.59
2023-03-04T03:07:13.643Z,99867.95
2023-03-04T03:09:43.175Z,99863.29
2023-03-04T03:12:11.696Z,99852.66
2023-03-04T03:14:40.841Z,99846.66
2023-03-04T03:17:10.679Z,99842.11
2023-03-04T03:19:40.452Z,99838.50
2023-03-04T03:22:11.619Z,99829.03
2023-03-04T03:24:40.984Z,99819.52
2023-03-04T03:27:09.537Z,99808.35
2023-03-04T03:29:41.267Z,99801.81
2023-03-04T03:32:09.684Z,99799.98
2023-03-04T03:34:39.721Z,99793.75
2023-03-04T03:37:10.374Z,99784.31
2023-03-04T03:39:43.540Z,99780.79
2023-03-04T03:42:12.091Z,99773.35
2023-03-04T03:44:40.708Z,99766.73
2023-03-04T03:47:10.033Z,99764.84
2023-03-04T03:49:38.432Z,99761.20
2023-03-04T03:52:08.690Z,99759.01
2023-03-04T03:54:37.975Z,99755.67
2023-03-04T03:57:07.069Z,99752.29
2023-03-04T03:59:37.162Z,99756.02
2023-03-04T04:02:06.146Z,99747.34
2023-03-04T04:04:35.169Z,99744.96
2023-03-04T04:07:04.098Z,99744.08
2023-03-04T04:09:34.487Z,99747.58
2023-03-04T04:12:05.915Z,99742.61
2023-03-04T04:14:41.957Z,99743.91
2023-03-04T04:17:11.185Z,99740.94
2023-03-04T04:19:41.003Z,99734.57
2023-03-04T04:22:15.889Z,99733.31
2023-03-04T04:24:44.609Z,99737.71
2023-03-04T04:27:13.306Z,99738.97
2023-03-04T04:29:42.396Z,99735.11
2023-03-04T04:32:13.926Z,99732.81
2023-03-04T04:34:44.759Z,99730.55
2023-03-04T04:37:13.105Z,99725.08
2023-03-04T04:39:41.461Z,99725.05
2023-03-04T04:42:11.247Z,99726.30
2023-03-04T04:44:40.135Z,99726.70
2023-03-04T04:47:09.639Z,99722.73
2023-03-04T04:49:38.180Z,99719.72
2023-03-04T04:52:06.691Z,99716.84
2023-03-04T04:54:35.218Z,99716.63
2023-03-04T04:57:03.899Z,99708.40
2023-03-04T04:59:32.725Z,99703.63
2023-03-04T05:02:05.715Z,99706.92
2023-03-04T05:04:35.659Z,99702.19
2023-03-04T05:07:04.406Z,99699.08
2023-03-04T05:09:35.087Z,99691.09
2023-03-04T05:12:03.268Z,99693.33
2023-03-04T05:14:35.664Z,99692.79
2023-03-04T05:17:04.570Z,99695.84
2023-03-04T05:19:33.041Z,99696.64
2023-03-04T05:22:05.652Z,99693.95
2023-03-04T05:24:35.166Z,99687.66
2023-03-04T05:27:03.831Z,99684.14
2023-03-04T05:29:32.703Z,99683.07
2023-03-04T05:32:01.649Z,99683.73
2023-03-04T05:34:31.394Z,99685.37
2023-03-04T05:37:00.263Z,99679.11
2023-03-04T05:39:29.709Z,99679.19
2023-03-04T05:41:57.775Z,99674.17
2023-03-04T05:44:29.315Z,99671.06
2023-03-04T05:46:57.972Z,99672.11
2023-03-04T05:49:26.604Z,99667.09
2023-03-04T05:51:55.246Z,99665.58
2023-03-04T05:54:23.695Z,99661.41
2023-03-04T05:56:52.620Z,99657.48
2023-03-04T05:59:21.373Z,99659.23
2023-03-04T06:01:51.107Z,99663.13
2023-03-04T06:04:19.950Z,99661.02
2023-03-04T06:06:54.491Z,99664.28
2023-03-04T06:09:24.581Z,99669.22
2023-03-04T06:11:53.228Z,99668.23
2023-03-04T06:14:26.252Z,99671.57
2023-03-04T06:16:55.245Z,99672.92
2023-03-04T06:19:23.895Z,99676.97
2023-03-04T06:21:52.416Z,99683.36
2023-03-04T06:24:21.637Z,99690.36
2023-03-04T06:26:50.258Z,99700.88
2023-03-04T06:29:20.476Z,99707.77
2023-03-04T06:31:49.278Z,99710.81
2023-03-04T06:34:19.725Z,99718.20
2023-03-04T06:36:48.767Z,99715.80
2023-03-04T06:39:19.227Z,99732.14
2023-03-04T06:41:47.821Z,99739.00
2023-03-04T06:44:16.375Z,99748.58
2023-03-04T06:46:46.778Z,99765.42
2023-03-04T06:49:15.551Z,99770.56
2023-03-04T06:51:43.998Z,99779.64
2023-03-04T06:54:12.816Z,99785.83
2023-03-04T06:56:41.521Z,99793.96
2023-03-04T06:59:10.274Z,99800.39
2023-03-04T07:01:38.846Z,99812.46
2023-03-04T07:04:08.244Z,99823.91
2023-03-04T07:06:37.195Z,99838.93
2023-03-04T07:09:07.048Z,99850.54
2023-03-04T07:11:35.833Z,99863.27
2023-03-04T07:14:04.416Z,99869.77
2023-03-04T07:16:33.424Z,99875.19
2023-03-04T07:19:02.226Z,99884.06
2023-03-04T07:21:34.460Z,99892.20
2023-03-04T07:24:03.100Z,99904.42
2023-03-04T07:26:32.366Z,99911.77
2023-03-04T07:29:01.514Z,99917.23
2023-03-04T07:31:32.111Z,99922.83
2023-03-04T07:34:05.282Z,99932.81
2023-03-04T07:36:35.534Z,99942.92
2023-03-04T07:39:07.428Z,99953.16
2023-03-04T07:41:37.888Z,99957.11
2023-03-04T07:44:06.864Z,99952.51
2023-03-04T07:46:39.672Z,99958.98
2023-03-04T07:49:08.114Z,99959.61
2023-03-04T07:51:37.286Z,99963.35
2023-03-04T07:54:06.122Z,99971.27
2023-03-04T07:56:34.879Z,99979.89
2023-03-04T07:59:03.539Z,99986.91
2023-03-04T08:01:36.468Z,99995.90
2023-03-04T08:04:05.743Z,99996.98
2023-03-04T08:06:34.245Z,99993.85
2023-03-04T08:09:09.278Z,100006.83
2023-03-04T08:11:38.250Z,100011.05
2023-03-04T08:14:07.505Z,100016.23
2023-03-04T08:16:41.288Z,100021.27
2023-03-04T08:19:11.605Z,100024.73
2023-03-04T08:21:41.187Z,100026.95
2023-03-04T08:24:10.549Z,100024.86
2023-03-04T08:26:44.280Z,100030.08
2023-03-04T08:29:14.990Z,100031.27
2023-03-04T08:31:48.727Z,100035.05
2023-03-04T08:34:18.943Z,100038.80
2023-03-04T08:36:52.462Z,100044.50
2023-03-04T08:39:21.120Z,100052.31
2023-03-04T08:41:49.933Z,100060.86
2023-03-04T08:44:19.330Z,100073.69
2023-03-04T08:46:48.080Z,100079.27
2023-03-04T08:49:19.013Z,100088.65
2023-03-04T08:51:47.578Z,100097.30
2023-03-04T08:54:16.070Z,100103.29
2023-03-04T08:56:45.276Z,100105.27
2023-03-04T08:59:14.162Z,100113.36
2023-03-04T09:01:42.685Z,100112.54
2023-03-04T09:04:13.765Z,100115.80
2023-03-04T09:06:42.165Z,100118.73
2023-03-04T09:09:11.633Z,100122.34
2023-03-04T09:11:40.833Z,100077.95
2023-03-04T09:14:09.797Z,99890.61
2023-03-04T09:16:39.532Z,99867.98
2023-03-04T09:19:07.974Z,99857.27
2023-03-04T09:21:40.141Z,99829.59
2023-03-04T09:24:08.900Z,99815.15
2023-03-04T09:26:37.744Z,99794.92
2023-03-04T09:29:07.589Z,99783.36
2023-03-04T09:31:36.497Z,99770.42
2023-03-04T09:34:08.224Z,99750.30
2023-03-04T09:36:36.621Z,99723.34
2023-03-04T09:39:07.614Z,99701.38
2023-03-04T09:41:38.542Z,99688.54
2023-03-04T09:44:20.531Z,99668.42
2023-03-04T09:46:50.146Z,99649.93
2023-03-04T09:49:20.047Z,99629.29
2023-03-04T09:51:51.313Z,99607.65
2023-03-04T09:54:46.562Z,99596.23
2023-03-04T09:57:48.444Z,99575.26
2023-03-04T10:00:26.891Z,99561.22
2023-03-04T10:03:10.157Z,99548.00
2023-03-04T10:05:45.028Z,99527.67
2023-03-04T10:08:29.428Z,99511.38
2023-03-04T10:10:59.388Z,99503.30
2023-03-04T10:13:52.879Z,99499.50
2023-03-04T10:16:25.114Z,99484.40
2023-03-04T10:19:00.015Z,99466.67
2023-03-04T10:21:32.334Z,99453.23
2023-03-04T10:24:06.602Z,99437.96
2023-03-04T10:26:35.224Z,99418.41
2023-03-04T10:29:07.238Z,99412.73
2023-03-04T10:31:38.989Z,99412.45
2023-03-04T10:34:09.530Z,99400.78
2023-03-04T10:36:55.698Z,99388.77
2023-03-04T10:39:30.654Z,99378.86
2023-03-04T10:42:01.991Z,99377.48
2023-03-04T10:44:31.716Z,99361.32
2023-03-04T10:47:00.792Z,99350.23
2023-03-04T10:49:30.037Z,99337.77
2023-03-04T10:52:03.466Z,99325.46
2023-03-04T10:54:49.265Z,99316.50
2023-03-04T10:57:24.001Z,99319.80
2023-03-04T10:59:57.181Z,99301.31
2023-03-04T11:02:32.220Z,99284.56
2023-03-04T11:05:21.989Z,99276.52
2023-03-04T11:07:59.831Z,99272.70
2023-03-04T11:10:39.010Z,99295.81
2023-03-04T11:13:11.893Z,99293.35
2023-03-04T11:15:59.576Z,99286.67
2023-03-04T11:18:42.866Z,99276.92
2023-03-04T11:21:18.480Z,99269.64
2023-03-04T11:23:57.990Z,99261.25
2023-03-04T11:26:29.668Z,99256.15
2023-03-04T11:29:21.702Z,99247.52
2023-03-04T11:32:32.888Z,99241.55
2023-03-04T11:35:09.417Z,99237.86
2023-03-04T11:37:53.281Z,99244.12
2023-03-04T11:40:48.721Z,99242.15
2023-03-04T11:43:22.428Z,99233.58
2023-03-04T11:46:29.696Z,99233.56
2023-03-04T11:49:26.466Z,99219.21
2023-03-04T11:51:58.790Z,99202.25
2023-03-04T11:54:38.613Z,99185.78
2023-03-04T11:57:17.917Z,99180.36
2023-03-04T11:59:55.714Z,99173.42
2023-03-04T12:02:30.518Z,99170.80
2023-03-04T12:05:20.908Z,99160.59
2023-03-04T12:07:56.337Z,99156.33
2023-03-04T12:10:31.206Z,99144.41
2023-03-04T12:13:28.575Z,99144.65
2023-03-04T12:16:35.584Z,99142.77
2023-03-04T12:19:16.480Z,99131.33
2023-03-04T12:21:54.596Z,99109.11
2023-03-04T12:25:12.391Z,99090.15
2023-03-04T12:28:00.362Z,99081.73
2023-03-04T12:31:07.166Z,99068.47
2023-03-04T12:33:42.888Z,99048.81
2023-03-04T12:36:49.405Z,99039.69
2023-03-04T12:39:31.163Z,99020.20
2023-03-04T12:42:38.297Z,99018.59
2023-03-04T12:45:27.949Z,98999.48
2023-03-04T12:48:06.362Z,98994.23
2023-03-04T12:50:48.907Z,98962.82
2023-03-04T12:53:24.944Z,98935.77
2023-03-04T12:55:54.009Z,98917.33
2023-03-04T12:58:25.757Z,98914.84
2023-03-04T13:00:56.357Z,98904.98
2023-03-04T13:03:31.907Z,98900.05
2023-03-04T13:06:19.829Z,98891.73
2023-03-04T13:09:15.756Z,98878.77
2023-03-04T13:11:54.937Z,98849.54
2023-03-04T13:14:26.218Z,98842.73
2023-03-04T13:17:02.646Z,98815.46
2023-03-04T13:19:52.805Z,98791.91
2023-03-04T13:22:38.825Z,98790.43
2023-03-04T13:25:26.662Z,98784.46
2023-03-04T13:28:15.820Z,98773.52
2023-03-04T13:30:56.053Z,98763.30
2023-03-04T13:33:24.582Z,98749.81
2023-03-04T13:36:05.465Z,98740.35
2023-03-04T13:38:39.421Z,98726.30
2023-03-04T13:41:32.180Z,98714.38
2023-03-04T13:44:02.104Z,98696.58
2023-03-04T13:46:43.088Z,98668.64
2023-03-04T13:49:24.159Z,98648.77
2023-03-04T13:51:53.827Z,98643.98
2023-03-04T13:54:27.890Z,98627.57
2023-03-04T13:57:03.106Z,98605.64
2023-03-04T13:59:43.727Z,98579.72
2023-03-04T14:02:12.775Z,98558.64
2023-03-04T14:04:56.843Z,98546.58
2023-03-04T14:07:34.039Z,98543.89
2023-03-04T14:10:14.051Z,98529.28
2023-03-04T14:12:53.821Z,98520.92
2023-03-04T14:15:27.642Z,98499.58
2023-03-04T14:18:02.674Z,98472.49
2023-03-04T14:20:34.316Z,98449.61
2023-03-04T14:23:23.000Z,98435.71
2023-03-04T14:25:52.453Z,98427.33
2023-03-04T14:28:21.751Z,98423.77
2023-03-04T14:30:52.591Z,98421.83
2023-03-04T14:33:23.746Z,98413.36
2023-03-04T14:35:58.504Z,98405.72
2023-03-04T14:38:30.130Z,98405.17
2023-03-04T14:41:11.341Z,98399.61
2023-03-04T14:43:42.377Z,98395.02
2023-03-04T14:46:16.028Z,98402.09
2023-03-04T14:48:49.314Z,98416.30
2023-03-04T14:51:48.954Z,98417.86
2023-03-04T14:54:41.446Z,98412.77
2023-03-04T14:57:21.190Z,98407.82
2023-03-04T14:59:51.161Z,98411.25
2023-03-04T15:02:31.668Z,98411.55
2023-03-04T15:05:02.101Z,98420.61
2023-03-04T15:07:35.264Z,98424.71
2023-03-04T15:10:07.041Z,98425.48
2023-03-04T15:12:36.574Z,98427.05
2023-03-04T15:15:42.344Z,98438.65
2023-03-04T15:18:26.673Z,98452.47
2023-03-04T15:21:03.929Z,98470.27
2023-03-04T15:23:33.238Z,98484.14
2023-03-04T15:26:03.743Z,98502.05
2023-03-04T15:28:37.248Z,98523.06
2023-03-04T15:31:06.793Z,98541.20
2023-03-04T15:33:39.331Z,98560.29
2023-03-04T15:36:10.916Z,98575.20
2023-03-04T15:38:48.096Z,98585.55
2023-03-04T15:41:27.080Z,98596.80
2023-03-04T15:44:00.303Z,98611.17
2023-03-04T15:46:29.621Z,98618.38
2023-03-04T15:48:58.309Z,98628.48
2023-03-04T15:51:28.185Z,98649.13
2023-03-04T15:53:57.693Z,98660.77
2023-03-04T15:56:35.198Z,98672.63
2023-03-04T15:59:07.042Z,98684.73
2023-03-04T16:01:35.761Z,98692.48
2023-03-04T16:04:05.633Z,98698.08
2023-03-04T16:06:34.458Z,98708.71
2023-03-04T16:09:07.466Z,98717.73
2023-03-04T16:11:39.713Z,98726.27
2023-03-04T16:14:10.297Z,98728.59
2023-03-04T16:16:39.152Z,98732.84
2023-03-04T16:19:07.898Z,98736.09
2023-03-04T16:21:41.081Z,98741.36
2023-03-04T16:24:16.508Z,98743.92
2023-03-04T16:26:45.407Z,98745.46
2023-03-04T16:29:14.696Z,98751.19
2023-03-04T16:31:43.921Z,98759.41
2023-03-04T16:34:13.166Z,98762.88
2023-03-04T16:36:42.050Z,98769.33
2023-03-04T16:39:18.224Z,98778.33
2023-03-04T16:41:48.053Z,98783.78
2023-03-04T16:44:17.160Z,98790.87
2023-03-04T16:46:46.077Z,98795.82
2023-03-04T16:49:14.897Z,98796.40
2023-03-04T16:51:48.652Z,98800.05
2023-03-04T16:54:19.816Z,98796.52
2023-03-04T16:56:48.473Z,98801.23
2023-03-04T16:59:17.727Z,98802.28
2023-03-04T17:01:46.787Z,98807.08
2023-03-04T17:04:16.898Z,98814.42
2023-03-04T17:06:46.313Z,98821.85
2023-03-04T17:09:15.066Z,98821.19
2023-03-04T17:11:44.261Z,98829.66
2023-03-04T17:14:15.197Z,98832.39
2023-03-04T17:16:44.998Z,98844.73
2023-03-04T17:19:18.266Z,98852.32
2023-03-04T17:21:47.094Z,98856.52
2023-03-04T17:24:16.181Z,98864.34
2023-03-04T17:26:45.095Z,98877.38
2023-03-04T17:29:13.542Z,98881.59
2023-03-04T17:31:42.282Z,98898.33
2023-03-04T17:34:11.191Z,98906.89
2023-03-04T17:36:40.423Z,98912.98
2023-03-04T17:39:09.270Z,98920.06
2023-03-04T17:41:38.822Z,98933.00
2023-03-04T17:44:11.972Z,98937.39
2023-03-04T17:46:40.723Z,98948.35
2023-03-04T17:49:11.471Z,98960.27
2023-03-04T17:51:40.437Z,98968.42
2023-03-04T17:54:10.371Z,98981.10
2023-03-04T17:56:41.073Z,98986.13
2023-03-04T17:59:15.390Z,99003.69
2023-03-04T18:01:47.400Z,99008.14
2023-03-04T18:04:16.350Z,99024.09
2023-03-04T18:06:45.736Z,99028.30
2023-03-04T18:09:14.413Z,99042.77
2023-03-04T18:11:43.516Z,99049.77
2023-03-04T18:14:13.087Z,99057.60
2023-03-04T18:16:46.936Z,99065.05
2023-03-04T18:19:18.524Z,99074.65
2023-03-04T18:21:53.148Z,99080.52
2023-03-04T18:24:22.312Z,99084.30
2023-03-04T18:26:51.212Z,99089.56
2023-03-04T18:29:20.366Z,99098.57
2023-03-04T18:31:49.221Z,99103.77
2023-03-04T18:34:18.332Z,99105.71
2023-03-04T18:36:48.288Z,99098.11
2023-03-04T18:39:17.733Z,99105.59
2023-03-04T18:41:46.935Z,99102.19
2023-03-04T18:44:15.668Z,99111.41
2023-03-04T18:46:47.694Z,99114.13
2023-03-04T18:49:16.476Z,99112.52
2023-03-04T18:51:45.564Z,99113.94
2023-03-04T18:54:15.358Z,99121.62
2023-03-04T18:56:48.158Z,99123.98
2023-03-04T18:59:24.633Z,99130.14
2023-03-04T19:01:53.453Z,99139.39
2023-03-04T19:04:22.560Z,99132.59
2023-03-04T19:06:51.656Z,99114.77
2023-03-04T19:09:20.285Z,99119.20
2023-03-04T19:11:48.960Z,99113.58
2023-03-04T19:14:22.593Z,99109.51
2023-03-04T19:16:52.367Z,99113.70
2023-03-04T19:19:21.382Z,99118.97
2023-03-04T19:21:50.028Z,99120.20
2023-03-04T19:24:18.908Z,99118.31
2023-03-04T19:26:55.084Z,99109.74
2023-03-04T19:29:24.215Z,99111.88
2023-03-04T19:31:53.009Z,99111.39
2023-03-04T19:34:21.800Z,99121.30
2023-03-04T19:36:50.573Z,99118.64
2023-03-04T19:39:19.518Z,99120.38
2023-03-04T19:41:48.730Z,99127.98
2023-03-04T19:44:17.920Z,99129.99
2023-03-04T19:46:46.035Z,99134.10
2023-03-04T19:49:19.908Z,99136.41
2023-03-04T19:51:48.590Z,99143.84
2023-03-04T19:54:17.445Z,99152.21
2023-03-04T19:56:46.423Z,99150.95
2023-03-04T19:59:15.085Z,99153.16
2023-03-04T20:01:43.496Z,99158.08
2023-03-04T20:04:13.766Z,99161.38
2023-03-04T20:06:43.872Z,99166.39
2023-03-04T20:09:12.498Z,99167.38
2023-03-04T20:11:56.296Z,99169.46
2023-03-04T20:14:28.408Z,99164.13
2023-03-04T20:17:04.145Z,99169.90
2023-03-04T20:19:32.955Z,99161.80
2023-03-04T20:22:01.369Z,99167.88
2023-03-04T20:24:30.356Z,99167.33
2023-03-04T20:27:03.030Z,99167.08
2023-03-04T20:29:33.987Z,99166.73
2023-03-04T20:32:04.095Z,99166.86
2023-03-04T20:34:33.292Z,99168.87
2023-03-04T20:37:02.402Z,99174.95
2023-03-04T20:39:31.855Z,99175.84
2023-03-04T20:42:00.290Z,99178.96
2023-03-04T20:44:31.769Z,99181.66
2023-03-04T20:47:01.848Z,99188.44
2023-03-04T20:49:30.734Z,99190.48
2023-03-04T20:52:06.273Z,99192.69
2023-03-04T20:54:38.823Z,99196.34
2023-03-04T20:57:10.849Z,99193.96
2023-03-04T20:59:41.536Z,99195.88
2023-03-04T21:02:14.759Z,99200.97
2023-03-04T21:04:44.229Z,99201.28
2023-03-04T21:07:13.218Z,99198.57
2023-03-04T21:09:45.972Z,99196.08
2023-03-04T21:12:14.934Z,99193.18
2023-03-04T21:14:45.884Z,99192.98
2023-03-04T21:17:15.330Z,99186.82
2023-03-04T21:19:44.297Z,99189.98
2023-03-04T21:22:15.437Z,99184.04
2023-03-04T21:24:45.009Z,99178.27
2023-03-04T21:27:13.857Z,99173.02
2023-03-04T21:29:42.655Z,99167.21
2023-03-04T21:32:24.357Z,99151.36
2023-03-04T21:34:54.652Z,99148.00
2023-03-04T21:37:24.183Z,99146.40
2023-03-04T21:39:55.205Z,99134.86
2023-03-04T21:42:24.241Z,99129.17
2023-03-04T21:44:57.764Z,99130.16
2023-03-04T21:47:26.050Z,99124.80
2023-03-04T21:49:54.166Z,99123.11
2023-03-04T21:52:22.384Z,99112.84
2023-03-04T21:54:51.169Z,99116.41
2023-03-04T21:57:19.594Z,99104.27
2023-03-04T21:59:48.571Z,99105.25
2023-03-04T22:02:19.173Z,99093.53
2023-03-04T22:04:48.416Z,99086.75
2023-03-04T22:07:17.249Z,99080.89
2023-03-04T22:09:48.415Z,99066.94
2023-03-04T22:12:19.744Z,99051.45
2023-03-04T22:14:48.406Z,99050.14
2023-03-04T22:17:18.034Z,99048.05
2023-03-04T22:19:47.068Z,99041.24
2023-03-04T22:22:20.155Z,99039.56
2023-03-04T22:24:48.607Z,99029.59
2023-03-04T22:27:16.991Z,99025.84
2023-03-04T22:29:46.591Z,99018.98
2023-03-04T22:32:17.266Z,99016.48
2023-03-04T22:34:47.194Z,99011.23
2023-03-04T22:37:16.174Z,99002.53
2023-03-04T22:39:44.800Z,99001.67
2023-03-04T22:42:14.271Z,98992.02
2023-03-04T22:44:42.999Z,98981.64
2023-03-04T22:47:11.679Z,98978.73
2023-03-04T22:49:41.483Z,98974.25
2023-03-04T22:52:15.256Z,98973.06
2023-03-04T22:54:43.624Z,98975.23
2023-03-04T22:57:12.265Z,99000.39
2023-03-04T22:59:40.982Z,99021.67
2023-03-04T23:02:10.327Z,99017.64
2023-03-04T23:04:39.112Z,99021.95
2023-03-04T23:07:08.120Z,99019.23
2023-03-04T23:09:37.765Z,99027.48
2023-03-04T23:12:06.856Z,99022.68
2023-03-04T23:14:35.216Z,99026.73
2023-03-04T23:17:06.205Z,99016.64
2023-03-04T23:19:35.107Z,99019.65
2023-03-04T23:22:04.118Z,99022.36
2023-03-04T23:24:33.962Z,99017.46
2023-03-04T23:27:03.546Z,99017.63
2023-03-04T23:29:33.601Z,99032.77
2023-03-04T23:32:01.708Z,99033.23
2023-03-04T23:34:30.188Z,99036.92
2023-03-04T23:36:58.925Z,99039.83
2023-03-04T23:39:27.555Z,99040.77
2023-03-04T23:41:56.229Z,99044.19
2023-03-04T23:44:25.188Z,99043.82
2023-03-04T23:46:53.892Z,99040.50
2023-03-04T23:49:22.860Z,99039.05
2023-03-04T23:51:51.391Z,99034.17
2023-03-04T23:54:20.388Z,99042.02
2023-03-04T23:56:48.820Z,99049.56
2023-03-04T23:59:21.222Z,99049.48
